Time;durP1;ratioP1;P1;durP2;ratioP2;P2;SDS_P1;SDS_P2;PMS_P1;PMS_P2;Temp;Humidity;BMP_temperature;BMP_pressure;BME280_temperature;BME280_humidity;BME280_pressure;Samples;Min_cycle;Max_cycle;Signal;HPM_P1;HPM_P2
2023/05/21 00:10:35;;;;;;;28.10;13.05;;;;;;;1.62;83.77;97107.50;5017315;28;20045;-56
2023/05/21 00:17:20;;;;;;;24.98;12.35;;;;;;;1.52;84.44;97103.41;5015621;28;20044;-56
2023/05/21 00:24:06;;;;;;;23.83;12.57;;;;;;;1.35;84.83;97094.19;5012326;28;20123;-56
2023/05/21 00:30:51;;;;;;;21.75;12.18;;;;;;;1.25;85.75;97093.66;5014583;28;20044;-56
2023/05/21 00:37:36;;;;;;;22.90;11.60;;;;;;;1.31;85.58;97095.53;5017018;28;20040;-56
2023/05/21 00:44:22;;;;;;;21.17;11.55;;;;;;;1.23;86.17;97085.22;5012726;28;20144;-56
2023/05/21 00:51:08;;;;;;;20.27;11.65;;;;;;;1.09;86.93;97074.63;5015544;28;20148;-56
2023/05/21 01:02:13;;;;;;;24.35;12.30;;;;;;;0.91;87.77;97064.56;5044569;28;20053;-56
2023/05/21 01:08:58;;;;;;;22.33;12.65;;;;;;;0.94;88.46;97073.81;5030671;28;20052;-56
2023/05/21 01:15:44;;;;;;;24.83;13.45;;;;;;;0.84;89.07;97068.91;5031602;28;20514;-56
2023/05/21 01:31:15;;;;;;;26.05;13.43;;;;;;;0.69;90.42;97071.53;5012866;28;20060;-56
2023/05/21 01:46:38;;;;;;;26.05;13.90;;;;;;;0.62;90.84;97054.16;5015052;28;20052;-56
2023/05/21 01:53:24;;;;;;;27.17;13.63;;;;;;;0.69;90.52;97055.03;5011376;28;20518;-56
2023/05/21 02:00:20;;;;;;;25.00;13.82;;;;;;;0.61;91.30;97048.13;5031318;28;20059;-56
2023/05/21 02:07:06;;;;;;;26.45;13.32;;;;;;;0.63;91.26;97050.56;5048987;28;20044;-56
2023/05/21 02:22:11;;;;;;;22.77;11.27;;;;;;;0.51;91.57;97042.38;5054289;28;20382;-56
2023/05/21 02:28:56;;;;;;;22.02;12.18;;;;;;;0.46;91.01;97037.72;5054092;28;20039;-56
2023/05/21 02:40:01;;;;;;;20.15;11.20;;;;;;;0.48;90.56;97035.72;5048276;28;20452;-56
2023/05/21 02:46:46;;;;;;;19.60;10.48;;;;;;;0.50;90.82;97032.94;5050448;28;20059;-56
2023/05/21 02:53:33;;;;;;;20.08;11.00;;;;;;;0.46;91.06;97026.47;5053574;28;20036;-56
2023/05/21 03:00:19;;;;;;;18.65;11.10;;;;;;;0.42;91.25;97020.81;5043301;28;20070;-56
2023/05/21 03:07:05;;;;;;;21.50;10.50;;;;;;;0.44;90.91;97018.00;5047962;28;20074;-56
2023/05/21 03:13:50;;;;;;;18.00;9.75;;;;;;;0.47;90.59;97015.03;5053662;28;20043;-56
2023/05/21 03:20:35;;;;;;;19.33;10.35;;;;;;;0.42;90.86;97009.56;5048031;28;20039;-56
2023/05/21 03:27:20;;;;;;;18.83;10.52;;;;;;;0.32;91.48;97007.22;5052818;28;20048;-55
2023/05/21 03:34:07;;;;;;;17.73;10.35;;;;;;;0.36;91.44;97009.31;5011036;28;20092;-56
2023/05/21 03:45:10;;;;;;;20.75;10.55;;;;;;;0.41;91.54;97003.53;5008113;28;20040;-56
2023/05/21 03:56:40;;;;;;;22.77;10.55;;;;;;;0.38;91.44;97004.72;5012607;28;20387;-56
2023/05/21 04:07:45;;;;;;;18.80;10.07;;;;;;;0.28;92.04;97011.19;5047136;28;20263;-56
2023/05/21 04:14:30;;;;;;;22.80;10.35;;;;;;;0.26;92.87;97015.78;5047505;28;20051;-56
2023/05/21 04:21:15;;;;;;;19.23;10.10;;;;;;;0.28;92.30;97014.59;5052532;28;20044;-55
2023/05/21 04:28:01;;;;;;;21.10;10.50;;;;;;;0.32;91.92;97010.63;5047711;28;20117;-56
2023/05/21 04:34:46;;;;;;;18.50;10.10;;;;;;;0.41;92.59;97013.97;5052511;28;20110;-56
2023/05/21 04:41:31;;;;;;;21.15;10.20;;;;;;;0.32;92.54;97015.03;5052131;28;20044;-56
2023/05/21 04:48:17;;;;;;;15.75;9.60;;;;;;;0.55;91.90;97017.56;5056124;28;20148;-56
2023/05/21 04:55:03;;;;;;;18.00;9.88;;;;;;;0.50;91.90;97017.28;5050844;28;20040;-56
2023/05/21 05:06:07;;;;;;;23.27;10.43;;;;;;;0.47;92.88;97017.66;5010331;28;20045;-56
2023/05/21 05:12:52;;;;;;;19.45;10.40;;;;;;;0.53;92.08;97011.72;5013800;28;20045;-56
2023/05/21 05:19:38;;;;;;;20.40;10.23;;;;;;;0.56;92.78;97017.38;5015258;28;20049;-56
2023/05/21 05:55:46;;;;;;;25.63;10.70;;;;;;;0.91;91.95;97004.53;5029230;28;20091;-56
2023/05/21 06:06:51;;;;;;;23.08;11.25;;;;;;;0.97;90.39;97004.81;5033078;28;20041;-56
2023/05/21 06:13:36;;;;;;;23.95;10.93;;;;;;;1.12;90.54;97001.13;5029424;28;20107;-56
2023/05/21 06:20:22;;;;;;;23.52;11.02;;;;;;;1.12;90.64;97003.75;5033935;28;20048;-56
2023/05/21 06:27:08;;;;;;;19.95;11.18;;;;;;;1.18;90.72;97004.00;5030128;28;20048;-56
2023/05/21 06:33:54;;;;;;;19.25;11.57;;;;;;;1.43;89.89;97004.47;5034186;28;20041;-56
2023/05/21 06:40:39;;;;;;;19.42;11.63;;;;;;;1.62;88.44;97024.72;5029365;28;20064;-56
2023/05/21 06:47:31;;;;;;;21.35;11.55;;;;;;;1.55;88.83;97013.41;5028581;28;20592;-56
2023/05/21 06:54:16;;;;;;;18.77;11.52;;;;;;;1.86;87.46;97017.47;5033254;28;20088;-56
2023/05/21 07:01:01;;;;;;;20.33;11.82;;;;;;;2.07;88.25;97019.22;5040638;28;20517;-56
2023/05/21 07:07:47;;;;;;;20.45;12.18;;;;;;;1.91;86.76;97017.69;5017132;28;20506;-56
2023/05/21 07:14:32;;;;;;;21.75;12.88;;;;;;;1.76;87.42;97025.63;5013486;28;20379;-56
2023/05/21 07:21:17;;;;;;;22.30;12.30;;;;;;;1.93;87.48;97020.97;5008379;28;20538;-56
2023/05/21 07:40:46;;;;;;;20.45;12.18;;;;;;;2.79;83.73;97030.31;5031996;28;20119;-56
2023/05/21 07:47:32;;;;;;;19.23;11.93;;;;;;;2.95;85.02;97031.75;5029015;28;20521;-56
2023/05/21 07:58:49;;;;;;;20.92;12.57;;;;;;;3.11;82.84;97027.97;5025334;28;20041;-56
2023/05/21 08:09:53;;;;;;;23.00;12.52;;;;;;;3.22;82.93;97030.03;5030316;28;20033;-57
2023/05/21 08:16:38;;;;;;;23.10;12.55;;;;;;;3.46;81.35;97039.97;5025087;28;20292;-57
2023/05/21 08:27:24;;;;;;;24.88;13.00;;;;;;;3.96;80.05;97047.47;5031330;28;20037;-56
2023/05/21 08:38:00;;;;;;;25.65;12.40;;;;;;;4.52;77.56;97051.44;5036391;28;20004;-56
2023/05/21 08:44:58;;;;;;;22.60;12.73;;;;;;;4.73;76.43;97047.75;5030982;28;20043;-55
2023/05/21 08:51:25;;;;;;;24.02;13.40;;;;;;;5.05;76.20;97037.31;5032575;28;19920;-56
2023/05/21 08:58:12;;;;;;;23.67;12.95;;;;;;;5.16;75.50;97036.66;5034694;28;20072;-56
2023/05/21 09:13:37;;;;;;;22.80;13.13;;;;;;;5.74;74.43;97034.91;5052566;28;20187;-55
2023/05/21 09:20:28;;;;;;;32.55;14.05;;;;;;;5.44;74.74;97027.63;5050341;28;20389;-59
2023/05/21 09:27:17;;;;;;;21.83;14.18;;;;;;;6.06;71.98;97024.38;5055083;28;20036;-60
2023/05/21 09:34:03;;;;;;;27.95;14.52;;;;;;;6.21;72.23;97035.38;5034371;28;20104;-59
2023/05/21 09:40:49;;;;;;;29.20;13.07;;;;;;;6.57;70.15;97035.63;5029728;28;20383;-60
2023/05/21 09:52:07;;;;;;;28.58;14.65;;;;;;;6.31;70.07;97034.88;5047102;28;20125;-63
2023/05/21 09:58:53;;;;;;;25.20;15.18;;;;;;;6.79;68.58;97030.75;5047325;28;20079;-63
2023/05/21 10:09:56;;;;;;;25.92;14.05;;;;;;;7.34;66.90;97030.66;5050494;28;20052;-63
2023/05/21 10:20:45;;;;;;;25.77;15.15;;;;;;;7.39;66.53;97032.63;5044204;28;20091;-63
2023/05/21 10:31:31;;;;;;;23.38;15.45;;;;;;;7.61;65.66;97015.25;5028880;28;20087;-64
2023/05/21 10:38:19;;;;;;;27.02;16.40;;;;;;;7.52;64.90;97013.97;5030133;28;20164;-64
2023/05/21 10:45:22;;;;;;;28.80;17.40;;;;;;;7.79;64.91;97008.31;5033046;28;20140;-64
2023/05/21 10:56:26;;;;;;;26.98;15.77;;;;;;;8.04;64.46;96993.06;5031865;28;20040;-64
2023/05/21 11:03:13;;;;;;;29.70;17.27;;;;;;;8.23;63.83;96992.94;5043630;28;20063;-64
2023/05/21 11:14:46;;;;;;;26.75;15.23;;;;;;;8.31;65.32;96992.59;5039840;28;20090;-64
2023/05/21 11:25:38;;;;;;;29.10;17.38;;;;;;;8.57;63.84;96988.69;5006006;28;20041;-60
2023/05/21 11:32:23;;;;;;;29.48;17.63;;;;;;;8.12;64.74;96988.47;5022083;28;20039;-63
2023/05/21 11:39:12;;;;;;;27.40;15.48;;;;;;;8.40;64.69;96980.66;5035400;28;20039;-64
2023/05/21 11:45:58;;;;;;;32.13;17.65;;;;;;;8.64;63.54;96976.16;5004519;28;20091;-63
2023/05/21 11:52:44;;;;;;;30.10;17.10;;;;;;;9.20;61.38;96997.59;5024546;28;20040;-61
